• Join FlightAware (Why Join?)
  • Login
  • US Flag 
11:23AM EDT


 

Airport Tracker/Info


-or-


 

Live Flight TrackerFlight Track Log ✈ KAP29 ✈ 14-Jun-2013 ✈ KBOS - KSLK

Flight Track Log - Related Links

Times and Time Zones

All times are in EDT time to prevent confusion due to time zone crossing. See the KAP29 flight status page for this flight to view local times or setup timezone preferences in your user account.

Time Position Orientation Groundspeed Altitude Reporting Facility
EDT Latitude Longitude Course Direction KTS MPH feet Rate Location/Type
06:30PM 42.3833 -71.0000 324° Northwest 129 148 500  Level KA90
06:30PM 42.4000 -71.0167 324° Northwest 112 129 900 660 Climbing KA90
06:31PM 42.4167 -71.0333 324° Northwest 119 137 1,500 540 Climbing KA90
06:32PM 42.4500 -71.0667 324° Northwest 127 146 2,000 540 Climbing KA90
06:33PM 42.4833 -71.0833 340° North 120 138 2,600 600 Climbing KA90
06:34PM 42.5000 -71.1167 304° West 117 135 3,200 540 Climbing KA90
06:35PM 42.5333 -71.1333 340° North 118 136 3,700 420 Climbing KA90
06:36PM 42.5667 -71.1500 340° North 127 146 4,100 420 Climbing KA90
06:37PM 42.5833 -71.1833 304° West 123 142 4,600 480 Climbing KA90
06:38PM 42.6167 -71.2000 340° North 123 142 5,100 480 Climbing KA90
06:39PM 42.6500 -71.2167 340° North 122 140 5,600 540 Climbing KA90
06:40PM 42.6833 -71.2500 324° Northwest 121 139 6,200 480 Climbing KA90
06:41PM 42.7000 -71.2833 304° West 125 144 6,600 300 Climbing KA90
06:42PM 42.7333 -71.3167 324° Northwest 131 151 6,900 300 Climbing KA90
06:43PM 42.7667 -71.3500 324° Northwest 139 160 7,200 300 Climbing KA90
06:44PM 42.7833 -71.3833 304° West 137 158 7,500 240 Climbing KA90
06:45PM 42.8167 -71.4333 312° West 142 163 7,700 180 Climbing KA90
06:46PM 42.8333 -71.4667 304° West 142 163 8,000 120 Climbing KA90
06:47PM 42.8667 -71.5167 312° West 153 176 8,000  Level KA90
06:48PM 42.9000 -71.5500 324° Northwest 157 181 8,000  Level KA90
06:49PM 42.9333 -71.6000 312° West 164 189 8,000  Level KA90
06:50PM 42.9500 -71.6500 294° West 161 185 8,000  Level KA90
06:51PM 42.9753 -71.7022 304° West 171 197 8,000  Level Boston Center
06:52PM 43.0047 -71.7531 308° West 158 182 8,000  Level Boston Center
06:53PM 43.0281 -71.7925 309° West 153 176 8,000  Level Boston Center
06:54PM 43.0553 -71.8406 308° West 153 176 8,000  Level Boston Center
06:55PM 43.0783 -71.8803 308° West 147 169 8,000  Level Boston Center
06:56PM 43.1058 -71.9283 308° West 147 169 8,000  Level Boston Center
06:57PM 43.1308 -71.9706 309° West 147 169 8,000  Level Boston Center
06:58PM 43.1603 -72.0189 310° West 147 169 8,000  Level Boston Center
06:59PM 43.1856 -72.0642 307° West 152 175 8,000  Level Boston Center
07:00PM 43.2128 -72.1125 308° West 152 175 8,000  Level Boston Center
07:01PM 43.2378 -72.1550 309° West 152 175 8,000  Level Boston Center
07:02PM 43.2672 -72.2064 308° West 152 175 8,000  Level Boston Center
07:03PM 43.2900 -72.2461 308° West 152 175 8,000  Level Boston Center
07:04PM 43.3172 -72.2944 308° West 152 175 8,000  Level Boston Center
07:05PM 43.3444 -72.3431 308° West 152 175 8,000  Level Boston Center
07:06PM 43.3717 -72.3886 309° West 152 175 8,000 -60 Level Boston Center
07:07PM 43.3986 -72.4344 309° West 152 175 7,900 -60 Descending Boston Center
07:08PM 43.4278 -72.4831 310° West 152 175 7,900  Level Boston Center
07:10PM 43.4528 -72.5286 307° West 152 175 7,900  Level Boston Center
07:11PM 43.4861 -72.5889 307° West 152 175 7,900  Level Boston Center
07:12PM 43.5111 -72.6347 307° West 152 175 7,900  Level Boston Center
07:13PM 43.5358 -72.6806 307° West 152 175 8,000  Climbing Boston Center
07:14PM 43.5692 -72.7353 310° West 152 175 8,000  Level Boston Center
07:15PM 43.5942 -72.7783 309° West 152 175 8,000  Level Boston Center
07:16PM 43.6169 -72.8244 304° West 147 169 8,000  Level Boston Center
07:17PM 43.6417 -72.8675 308° West 147 169 8,000  Level Boston Center
07:18PM 43.6664 -72.9167 305° West 147 169 8,000  Level Boston Center
07:19PM 43.6914 -72.9656 305° West 147 169 8,000  Level Boston Center
07:20PM 43.7139 -73.0144 302° West 147 169 8,000  Level Boston Center
07:21PM 43.7344 -73.0636 300° West 147 169 8,000  Level Boston Center
07:22PM 43.7614 -73.1097 309° West 147 169 8,000  Level Boston Center
07:23PM 43.7861 -73.1533 308° West 147 169 8,000  Level Boston Center
07:24PM 43.8108 -73.1967 308° West 147 169 8,000  Level Boston Center
07:25PM 43.8378 -73.2403 311° West 147 169 8,000  Level Boston Center
07:26PM 43.8644 -73.2839 310° West 147 169 8,000  Level Boston Center
07:27PM 43.8911 -73.3244 312° West 147 169 8,000  Level Boston Center
07:28PM 43.9158 -73.3711 306° West 147 169 8,000 -60 Level Boston Center
07:29PM 43.9425 -73.4147 310° West 147 169 7,900 -300 Descending Boston Center
07:30PM 43.9672 -73.4525 312° West 152 175 7,400 -300 Descending Boston Center
07:31PM 44.0003 -73.4992 315° West 152 175 7,400  Level Boston Center
07:32PM 44.0289 -73.5403 314° West 147 169 7,400 -120 Level Boston Center
07:33PM 44.0619 -73.5756 323° Northwest 147 169 7,200 -300 Descending Boston Center
07:34PM 44.0969 -73.6108 324° Northwest 147 169 6,800 -300 Descending Boston Center
07:35PM 44.1342 -73.6433 328° Northwest 156 180 6,600 -180 Descending Boston Center
07:36PM 44.1692 -73.6731 329° Northwest 150 173 6,500 -180 Descending Boston Center
07:37PM 44.2064 -73.7000 333° Northwest 144 166 6,300 -240 Descending Boston Center
07:38PM 44.2436 -73.7325 328° Northwest 144 166 6,100 -240 Descending Boston Center
07:39PM 44.2789 -73.7594 331° Northwest 144 166 5,900 -240 Descending Boston Center
07:40PM 44.3117 -73.7919 325° Northwest 144 166 5,700 -120 Descending Boston Center
07:41PM 44.3447 -73.8247 325° Northwest 149 171 5,700  Level Boston Center